Time;durP1;ratioP1;P1;durP2;ratioP2;P2;SDS_P1;SDS_P2;PMS_P1;PMS_P2;Temp;Humidity;BMP_temperature;BMP_pressure;BME280_temperature;BME280_humidity;BME280_pressure;Samples;Min_cycle;Max_cycle;Signal;HPM_P1;HPM_P2
2023/06/18 00:00:12;;;;;;;26.33;20.30;;;;;;;-143.21;100.00;71919.50;5089970;28;20674;-77
2023/06/18 00:02:40;;;;;;;25.63;20.57;;;;;;;-143.21;100.00;71927.44;5088519;28;20204;-77
2023/06/18 00:05:08;;;;;;;28.87;21.93;;;;;;;-143.21;100.00;71933.38;5088540;28;20200;-77
2023/06/18 00:07:34;;;;;;;27.67;22.07;;;;;;;-143.21;100.00;71937.34;5086994;28;20225;-77
2023/06/18 00:10:03;;;;;;;30.77;21.97;;;;;;;-143.21;100.00;71935.34;5089835;28;20687;-77
2023/06/18 00:12:30;;;;;;;26.93;22.10;;;;;;;-143.21;100.00;71921.47;5089054;28;20202;-76
2023/06/18 00:14:56;;;;;;;28.37;21.90;;;;;;;-143.21;100.00;71925.44;5089707;28;20213;-76
2023/06/18 00:17:25;;;;;;;27.67;21.73;;;;;;;-143.21;100.00;71921.47;5089148;28;21506;-76
2023/06/18 00:19:53;;;;;;;31.87;22.60;;;;;;;-143.21;100.00;71915.53;5088976;28;20709;-77
2023/06/18 00:22:21;;;;;;;29.73;22.10;;;;;;;-143.21;100.00;71911.56;5088580;28;20693;-77
2023/06/18 00:24:48;;;;;;;33.70;23.20;;;;;;;-143.21;100.00;71913.53;5089451;28;20568;-77
2023/06/18 00:27:15;;;;;;;32.10;23.03;;;;;;;-143.21;100.00;71909.56;5088900;28;20231;-77
2023/06/18 00:29:47;;;;;;;30.33;22.60;;;;;;;-143.21;100.00;71909.56;5088887;28;20215;-77
2023/06/18 00:32:14;;;;;;;28.80;22.37;;;;;;;-143.21;100.00;71899.66;5088486;28;20216;-77
2023/06/18 00:34:41;;;;;;;29.40;22.30;;;;;;;-143.21;100.00;71899.66;5089717;28;20672;-77
2023/06/18 00:37:10;;;;;;;30.00;22.50;;;;;;;-143.21;100.00;71901.66;5086601;28;20292;-77
2023/06/18 00:39:38;;;;;;;29.53;23.00;;;;;;;-143.21;100.00;71895.69;5089255;28;20211;-76
2023/06/18 00:42:07;;;;;;;33.33;23.83;;;;;;;-143.21;100.00;71889.75;5089350;28;20719;-77
2023/06/18 00:44:35;;;;;;;33.67;23.17;;;;;;;-143.21;100.00;71901.66;5085978;28;20208;-78
2023/06/18 00:47:02;;;;;;;31.17;22.80;;;;;;;-143.21;100.00;71903.63;5086661;28;20288;-79
2023/06/18 00:49:44;;;;;;;30.33;23.23;;;;;;;-143.21;100.00;71893.72;5089537;28;20211;-78
2023/06/18 00:52:14;;;;;;;29.80;23.20;;;;;;;-143.21;100.00;71901.66;5086942;28;20292;-78
2023/06/18 00:54:42;;;;;;;30.83;23.93;;;;;;;-143.21;100.00;71897.69;5088377;28;20223;-76
2023/06/18 00:57:13;;;;;;;29.87;23.40;;;;;;;-143.21;100.00;71897.69;5087946;28;20295;-77
2023/06/18 00:59:42;;;;;;;30.83;23.77;;;;;;;-143.21;100.00;71897.69;5089842;28;20217;-77
2023/06/18 01:02:09;;;;;;;32.27;24.67;;;;;;;-143.21;100.00;71903.63;5089229;28;20631;-78
2023/06/18 01:04:39;;;;;;;30.87;24.03;;;;;;;-143.21;100.00;71911.56;5089930;28;20200;-78
2023/06/18 01:07:12;;;;;;;32.87;24.47;;;;;;;-143.21;100.00;71899.66;5089991;28;20220;-77
2023/06/18 01:09:42;;;;;;;34.23;24.57;;;;;;;-143.21;100.00;71895.69;5089816;28;20203;-78
2023/06/18 01:12:09;;;;;;;30.27;24.20;;;;;;;-143.21;100.00;71893.72;5088704;28;20740;-77
2023/06/18 01:14:37;;;;;;;32.67;23.77;;;;;;;-143.21;100.00;71903.63;5090585;28;20346;-77
2023/06/18 01:17:07;;;;;;;32.33;24.33;;;;;;;-143.21;100.00;71899.66;5089104;28;20224;-77
2023/06/18 01:19:45;;;;;;;31.43;23.97;;;;;;;-143.21;100.00;71879.84;5084647;28;20702;-77
2023/06/18 01:22:26;;;;;;;35.23;24.77;;;;;;;-143.21;100.00;71877.84;5086893;28;20207;-77
2023/06/18 01:24:57;;;;;;;29.63;23.33;;;;;;;-143.21;100.00;71887.78;5087689;28;20204;-77
2023/06/18 01:27:25;;;;;;;33.83;24.13;;;;;;;-143.21;100.00;71883.81;5088442;28;20220;-78
2023/06/18 01:29:53;;;;;;;30.60;23.93;;;;;;;-143.21;100.00;71885.78;5087720;28;20204;-78
2023/06/18 01:32:21;;;;;;;31.87;24.33;;;;;;;-143.21;100.00;71879.84;5087914;28;20204;-78
2023/06/18 01:34:48;;;;;;;33.33;24.67;;;;;;;-143.21;100.00;71877.84;5088527;28;20201;-78
2023/06/18 01:37:25;;;;;;;33.73;24.20;;;;;;;-143.21;100.00;71879.84;5087014;28;20205;-79
2023/06/18 01:40:04;;;;;;;41.87;24.00;;;;;;;-143.21;100.00;71871.91;5086869;28;20663;-79
2023/06/18 01:42:36;;;;;;;31.30;23.10;;;;;;;-143.21;100.00;71881.81;5087051;28;20207;-78
2023/06/18 01:45:08;;;;;;;31.17;24.37;;;;;;;-143.21;100.00;71873.88;5087874;28;20200;-78
2023/06/18 01:47:35;;;;;;;33.33;23.87;;;;;;;-143.21;100.00;71871.91;5083970;28;20231;-79
2023/06/18 01:50:04;;;;;;;30.03;23.07;;;;;;;-143.21;100.00;71867.94;5083048;28;20660;-78
2023/06/18 01:52:35;;;;;;;33.23;23.87;;;;;;;-143.21;100.00;71869.91;5088668;28;20203;-79
2023/06/18 01:55:05;;;;;;;32.17;24.43;;;;;;;-143.21;100.00;71863.97;5085308;28;20216;-78
2023/06/18 01:57:33;;;;;;;34.07;24.87;;;;;;;-143.21;100.00;71875.88;5088031;28;20628;-78
2023/06/18 02:00:00;;;;;;;33.90;24.67;;;;;;;-143.21;100.00;71871.91;5087753;28;20287;-79
2023/06/18 02:02:27;;;;;;;33.33;23.90;;;;;;;-143.21;100.00;71873.88;5086846;28;20300;-79
2023/06/18 02:04:53;;;;;;;32.00;24.60;;;;;;;-143.21;100.00;71867.94;5088186;28;20209;-79
2023/06/18 02:07:20;;;;;;;32.10;24.63;;;;;;;-143.21;100.00;71883.81;5086731;28;20228;-78
2023/06/18 02:09:47;;;;;;;31.77;24.83;;;;;;;-143.21;100.00;71873.88;5087519;28;20211;-78
2023/06/18 02:12:15;;;;;;;37.33;24.23;;;;;;;-143.21;100.00;71869.91;5086171;28;20212;-78
2023/06/18 02:14:45;;;;;;;33.40;23.50;;;;;;;-143.21;100.00;71871.91;5086681;28;20201;-78
2023/06/18 02:17:12;;;;;;;32.40;24.53;;;;;;;-143.21;100.00;71871.91;5087088;28;20208;-78
2023/06/18 02:19:39;;;;;;;33.10;24.83;;;;;;;-143.21;100.00;71871.91;5088393;28;20236;-78
2023/06/18 02:22:06;;;;;;;31.23;24.17;;;;;;;-143.21;100.00;71867.94;5088028;28;20205;-77
2023/06/18 02:24:34;;;;;;;36.70;26.00;;;;;;;-143.21;100.00;71865.97;5087797;28;20211;-79
2023/06/18 02:27:01;;;;;;;30.63;23.70;;;;;;;-143.21;100.00;71865.97;5087562;28;20228;-79
2023/06/18 02:29:29;;;;;;;30.73;24.07;;;;;;;-143.21;100.00;71860.00;5087839;28;20204;-79
2023/06/18 02:31:56;;;;;;;34.03;24.67;;;;;;;-143.21;100.00;71871.91;5087742;28;20299;-79
2023/06/18 02:34:27;;;;;;;34.10;25.27;;;;;;;-143.21;100.00;71875.88;5087184;28;20785;-78
2023/06/18 02:36:55;;;;;;;33.30;25.03;;;;;;;-143.21;100.00;71885.78;5088070;28;20217;-79
2023/06/18 02:39:23;;;;;;;35.23;25.93;;;;;;;-143.21;100.00;71901.66;5086668;28;20209;-79
2023/06/18 02:41:49;;;;;;;33.13;25.40;;;;;;;-143.21;100.00;71913.53;5087675;28;20215;-78
2023/06/18 02:44:17;;;;;;;38.13;26.80;;;;;;;-143.21;100.00;71915.53;5085802;28;20216;-79
2023/06/18 02:46:45;;;;;;;32.50;25.37;;;;;;;-143.21;100.00;71915.53;5087068;28;20229;-79
2023/06/18 02:49:12;;;;;;;35.30;25.90;;;;;;;-143.21;100.00;71911.56;5085784;28;20208;-78
2023/06/18 02:51:39;;;;;;;34.13;25.37;;;;;;;-143.21;100.00;71901.66;5086892;28;20204;-79
2023/06/18 02:54:06;;;;;;;39.47;27.40;;;;;;;-143.21;100.00;71895.69;5087107;28;20208;-79
2023/06/18 02:56:33;;;;;;;36.87;25.90;;;;;;;-143.21;100.00;71889.75;5086959;28;20208;-79
2023/06/18 02:59:00;;;;;;;32.63;25.43;;;;;;;-143.21;100.00;71887.78;5087926;28;20200;-81
2023/06/18 03:01:27;;;;;;;41.77;30.23;;;;;;;-143.21;100.00;71887.78;5086118;28;20209;-78
2023/06/18 03:03:56;;;;;;;45.67;33.67;;;;;;;-143.21;100.00;71885.78;5087159;28;20228;-78
2023/06/18 03:06:23;;;;;;;43.23;32.87;;;;;;;-143.21;100.00;71879.84;5086812;28;20208;-77
2023/06/18 03:08:51;;;;;;;41.60;28.90;;;;;;;-143.21;100.00;71879.84;5086402;28;20658;-79
2023/06/18 03:11:18;;;;;;;34.60;26.27;;;;;;;-143.21;100.00;71883.81;5086378;28;20201;-80
2023/06/18 03:13:45;;;;;;;34.63;25.57;;;;;;;-143.21;100.00;71873.88;5087162;28;20204;-80
2023/06/18 03:16:12;;;;;;;30.27;24.20;;;;;;;-143.21;100.00;71881.81;5086086;28;20212;-79
2023/06/18 03:18:38;;;;;;;34.50;25.43;;;;;;;-143.21;100.00;71877.84;5086543;28;20699;-79
2023/06/18 03:21:07;;;;;;;33.33;24.67;;;;;;;-143.21;100.00;71871.91;5086741;28;20204;-79
2023/06/18 03:23:33;;;;;;;30.40;23.93;;;;;;;-143.21;100.00;71875.88;5083134;28;20219;-78
2023/06/18 03:26:00;;;;;;;30.77;23.83;;;;;;;-143.21;100.00;71871.91;5086862;28;20203;-78
2023/06/18 03:28:27;;;;;;;34.40;24.03;;;;;;;-143.21;100.00;71873.88;5086367;28;20232;-78
2023/06/18 03:30:54;;;;;;;32.13;24.17;;;;;;;-143.21;100.00;71873.88;5085531;28;20213;-80
2023/06/18 03:33:21;;;;;;;30.80;24.07;;;;;;;-143.21;100.00;71877.84;5084776;28;20207;-79
2023/06/18 03:35:49;;;;;;;31.80;23.80;;;;;;;-143.21;100.00;71873.88;5086241;28;20201;-79
2023/06/18 03:38:19;;;;;;;32.53;24.60;;;;;;;-143.21;100.00;71867.94;5087219;28;20201;-80
2023/06/18 03:40:46;;;;;;;34.70;24.40;;;;;;;-143.21;100.00;71867.94;5087484;28;20205;-79
2023/06/18 03:43:13;;;;;;;33.87;24.50;;;;;;;-143.21;100.00;71862.00;5087426;28;20673;-79
2023/06/18 03:45:40;;;;;;;30.40;23.83;;;;;;;-143.21;100.00;71858.03;5090651;28;20204;-79
2023/06/18 03:48:07;;;;;;;32.70;24.70;;;;;;;-143.21;100.00;71860.00;5087461;28;20232;-78
2023/06/18 03:50:34;;;;;;;32.97;24.13;;;;;;;-143.21;100.00;71863.97;5085828;28;20205;-79
2023/06/18 03:53:01;;;;;;;32.47;24.33;;;;;;;-143.21;100.00;71863.97;5082782;28;20216;-79
2023/06/18 03:55:29;;;;;;;32.03;23.40;;;;;;;-143.21;100.00;71865.97;5087257;28;21008;-78
2023/06/18 03:57:56;;;;;;;31.50;24.73;;;;;;;-143.21;100.00;71856.03;5086383;28;20660;-78
2023/06/18 04:00:23;;;;;;;29.93;23.93;;;;;;;-143.21;100.00;71860.00;5085888;28;20201;-78
2023/06/18 04:02:51;;;;;;;31.80;23.63;;;;;;;-143.21;100.00;71858.03;5085652;28;20283;-78
2023/06/18 04:05:18;;;;;;;29.07;23.47;;;;;;;-143.21;100.00;71860.00;5085491;28;20201;-78
2023/06/18 04:07:45;;;;;;;35.63;25.43;;;;;;;-143.21;100.00;71862.00;5086255;28;20239;-78
2023/06/18 04:10:11;;;;;;;31.00;24.93;;;;;;;-143.21;100.00;71860.00;5085942;28;20208;-78
2023/06/18 04:12:40;;;;;;;35.87;24.60;;;;;;;-143.21;100.00;71860.00;5088199;28;20211;-78
2023/06/18 04:15:07;;;;;;;32.17;25.07;;;;;;;-143.21;100.00;71865.97;5089648;28;20209;-78
2023/06/18 04:17:39;;;;;;;32.63;24.93;;;;;;;-143.21;100.00;71858.03;5086813;28;20200;-80
2023/06/18 04:20:08;;;;;;;30.07;24.03;;;;;;;-143.21;100.00;71862.00;5086772;28;20200;-79
2023/06/18 04:22:44;;;;;;;32.37;25.57;;;;;;;-143.21;100.00;71877.84;5090409;28;20204;-80
2023/06/18 04:25:13;;;;;;;33.83;26.40;;;;;;;-143.21;100.00;71867.94;5090112;28;20203;-79
2023/06/18 04:27:47;;;;;;;36.07;27.60;;;;;;;-143.21;100.00;71885.78;5090069;28;20247;-79
2023/06/18 04:30:14;;;;;;;45.53;33.17;;;;;;;-143.21;100.00;71887.78;5089465;28;20189;-80
2023/06/18 04:32:43;;;;;;;49.23;36.87;;;;;;;-143.21;100.00;71871.91;5089560;28;20209;-78
2023/06/18 04:39:02;;;;;;;50.23;37.00;;;;;;;-143.21;100.00;71862.00;4970138;28;20215;-79
2023/06/18 04:41:29;;;;;;;44.13;33.03;;;;;;;-143.21;100.00;71862.00;4976475;28;20773;-79
2023/06/18 04:43:57;;;;;;;39.73;30.27;;;;;;;-143.21;100.00;71871.91;5068684;28;21228;-81
2023/06/18 04:46:24;;;;;;;40.20;29.20;;;;;;;-143.21;100.00;71871.91;5089491;28;20212;-80
2023/06/18 04:48:51;;;;;;;35.10;26.80;;;;;;;-143.21;100.00;71867.94;5088827;28;20224;-80
2023/06/18 04:51:23;;;;;;;36.07;26.70;;;;;;;-143.21;100.00;71862.00;5087793;28;20204;-81
2023/06/18 04:56:32;;;;;;;32.10;24.90;;;;;;;-143.21;100.00;71863.97;5069925;28;20212;-78
2023/06/18 04:59:02;;;;;;;33.73;25.87;;;;;;;-143.21;100.00;71863.97;5088346;28;20199;-78
2023/06/18 05:01:29;;;;;;;35.20;25.80;;;;;;;-143.21;100.00;71887.78;5088139;28;20251;-77
2023/06/18 05:03:56;;;;;;;39.23;26.13;;;;;;;-143.21;100.00;71873.88;5088042;28;20842;-76
2023/06/18 05:06:23;;;;;;;35.23;26.40;;;;;;;-143.21;100.00;71885.78;5085360;28;20197;-78
2023/06/18 05:08:50;;;;;;;34.70;25.57;;;;;;;-143.21;100.00;71889.75;5086410;28;20228;-78
2023/06/18 05:11:18;;;;;;;38.40;25.17;;;;;;;-143.21;100.00;71891.72;5085790;28;20265;-76
2023/06/18 05:13:45;;;;;;;36.13;25.80;;;;;;;-143.21;100.00;71899.66;5086186;28;20211;-77
2023/06/18 05:16:13;;;;;;;30.33;25.27;;;;;;;-143.21;100.00;71907.59;5085766;28;20212;-77
2023/06/18 05:18:40;;;;;;;31.97;24.93;;;;;;;-143.21;100.00;71913.53;5085958;28;20237;-77
2023/06/18 05:21:06;;;;;;;33.17;25.33;;;;;;;-143.21;100.00;71909.56;5085870;28;20204;-78
2023/06/18 05:23:33;;;;;;;31.40;26.00;;;;;;;-143.21;100.00;71913.53;5085333;28;20583;-78
2023/06/18 05:26:00;;;;;;;32.50;25.23;;;;;;;-143.21;100.00;71911.56;5087074;28;20621;-77
2023/06/18 05:28:27;;;;;;;33.70;25.80;;;;;;;-143.21;100.00;71905.63;5086276;28;20224;-77
2023/06/18 05:30:54;;;;;;;32.53;24.27;;;;;;;-143.21;100.00;71909.56;5086073;28;20695;-78
2023/06/18 05:33:22;;;;;;;32.80;25.73;;;;;;;-143.21;100.00;71917.50;5085798;28;20193;-77
2023/06/18 05:35:49;;;;;;;32.40;25.87;;;;;;;-143.21;100.00;71915.53;5086517;28;20284;-76
2023/06/18 05:38:16;;;;;;;36.30;26.20;;;;;;;-143.21;100.00;71919.50;5086262;28;20208;-78
2023/06/18 05:40:42;;;;;;;34.40;25.60;;;;;;;-143.21;100.00;71913.53;5086890;28;20712;-79
2023/06/18 05:43:09;;;;;;;31.83;24.80;;;;;;;-143.21;100.00;71911.56;5087057;28;20220;-77
2023/06/18 05:45:36;;;;;;;33.50;24.73;;;;;;;-143.21;100.00;71897.69;5086285;28;20687;-77
2023/06/18 05:48:03;;;;;;;30.13;24.33;;;;;;;-143.21;100.00;71905.63;5087474;28;20229;-78
2023/06/18 05:50:31;;;;;;;30.90;23.80;;;;;;;-143.21;100.00;71909.56;5085854;28;20205;-76
2023/06/18 05:52:58;;;;;;;32.03;24.67;;;;;;;-143.21;100.00;71903.63;5086704;28;20205;-80
2023/06/18 05:55:25;;;;;;;33.03;23.93;;;;;;;-143.21;100.00;71899.66;5087452;28;20289;-79
2023/06/18 05:57:51;;;;;;;30.53;24.17;;;;;;;-143.21;100.00;71883.81;5087257;28;20188;-79
2023/06/18 06:00:18;;;;;;;29.27;23.20;;;;;;;-143.21;100.00;71887.78;5087626;28;20215;-79
2023/06/18 06:02:46;;;;;;;32.10;24.20;;;;;;;-143.21;100.00;71889.75;5087705;28;20557;-79
2023/06/18 06:05:13;;;;;;;28.97;23.50;;;;;;;-143.21;100.00;71885.78;5086257;28;20887;-78
2023/06/18 06:07:41;;;;;;;33.27;24.10;;;;;;;-143.21;100.00;71867.94;5085327;28;20204;-79
2023/06/18 06:10:09;;;;;;;30.73;23.03;;;;;;;-143.21;100.00;71869.91;5084301;28;20207;-80
2023/06/18 06:12:36;;;;;;;28.77;22.60;;;;;;;-143.21;99.81;71863.97;5084325;28;21119;-77
2023/06/18 06:15:04;;;;;;;28.43;23.17;;;;;;;-143.21;99.71;71860.00;5085604;28;20216;-79
2023/06/18 06:17:31;;;;;;;28.53;22.73;;;;;;;-143.21;99.34;71863.97;5085835;28;20203;-78
2023/06/18 06:19:57;;;;;;;30.80;22.80;;;;;;;-143.21;99.97;71883.81;5084932;28;20208;-77
2023/06/18 06:22:24;;;;;;;29.67;22.53;;;;;;;-143.21;100.00;71871.91;5083122;28;20624;-77
2023/06/18 06:24:52;;;;;;;27.83;21.57;;;;;;;-143.21;100.00;71889.75;5086127;28;20266;-78
2023/06/18 06:27:19;;;;;;;28.13;22.13;;;;;;;-143.21;99.92;71871.91;5084863;28;20552;-78
2023/06/18 06:29:46;;;;;;;26.70;21.60;;;;;;;-143.21;99.28;71867.94;5085794;28;20225;-77
2023/06/18 06:32:21;;;;;;;30.70;22.20;;;;;;;-143.21;99.00;71865.97;5085324;28;20678;-78
2023/06/18 06:34:48;;;;;;;26.00;20.50;;;;;;;-143.21;98.48;71848.09;5086272;28;20196;-78
2023/06/18 06:37:15;;;;;;;29.23;22.23;;;;;;;-143.21;97.32;71840.19;5082147;28;20292;-77
2023/06/18 06:39:42;;;;;;;24.60;19.90;;;;;;;-143.21;97.90;71838.19;5083392;28;20204;-78
2023/06/18 06:42:10;;;;;;;28.33;20.27;;;;;;;-143.21;97.35;71828.28;5085385;28;20289;-78
2023/06/18 06:44:37;;;;;;;25.93;21.07;;;;;;;-143.21;96.74;71824.31;5085904;28;20659;-78
2023/06/18 06:47:05;;;;;;;25.30;20.30;;;;;;;-143.21;97.04;71824.31;5085588;28;20220;-78
2023/06/18 06:49:32;;;;;;;23.33;19.60;;;;;;;-143.21;96.54;71822.34;5086539;28;20220;-78
2023/06/18 06:51:58;;;;;;;27.73;19.70;;;;;;;-143.21;95.70;71818.38;5085589;28;20223;-79
2023/06/18 06:54:28;;;;;;;25.80;18.43;;;;;;;-143.21;95.55;71812.41;5084008;28;20212;-79
2023/06/18 06:57:17;;;;;;;22.53;18.67;;;;;;;-143.21;95.06;71796.56;5084533;28;20216;-83
2023/06/18 06:59:45;;;;;;;22.40;18.17;;;;;;;-143.21;94.17;71798.53;5083681;28;20216;-76
2023/06/18 07:02:13;;;;;;;22.53;18.77;;;;;;;-143.21;93.43;71784.66;5085198;28;20682;-79
2023/06/18 07:04:45;;;;;;;24.57;18.97;;;;;;;-143.21;93.24;71786.63;5083677;28;20327;-77
2023/06/18 07:07:13;;;;;;;21.90;17.60;;;;;;;-143.21;93.96;71780.69;5084581;28;20204;-78
2023/06/18 07:09:40;;;;;;;22.10;18.33;;;;;;;-143.21;94.17;71774.75;5084566;28;20629;-78
2023/06/18 07:12:17;;;;;;;28.47;18.47;;;;;;;-143.21;92.60;71754.91;5085667;28;20690;-82
2023/06/18 07:15:23;;;;;;;25.67;18.60;;;;;;;-143.21;92.73;71756.91;5085291;28;20223;-78
2023/06/18 07:17:58;;;;;;;24.17;19.37;;;;;;;-143.21;92.71;71760.88;5064589;28;20236;-78
2023/06/18 07:23:10;;;;;;;25.47;19.50;;;;;;;-143.21;93.10;71729.13;5061707;28;20203;-79
2023/06/18 07:25:37;;;;;;;24.83;19.00;;;;;;;-143.21;92.55;71709.31;5083839;28;20311;-79
2023/06/18 07:28:04;;;;;;;22.87;18.67;;;;;;;-143.21;91.17;71695.44;5086423;28;20200;-78
2023/06/18 07:30:31;;;;;;;19.80;16.63;;;;;;;-143.21;90.36;71681.56;5085393;28;20196;-78
2023/06/18 07:33:16;;;;;;;20.47;16.50;;;;;;;-143.21;89.25;71677.59;5086576;28;20223;-83
2023/06/18 07:35:42;;;;;;;21.40;15.57;;;;;;;-143.21;87.52;71671.63;5083096;28;20200;-79
2023/06/18 07:38:09;;;;;;;19.92;14.48;;;;;;;-143.21;86.51;71671.63;5084745;28;20675;-76
2023/06/18 07:40:39;;;;;;;18.60;15.73;;;;;;;-143.21;86.04;71677.59;5085408;28;20223;-77
2023/06/18 07:43:06;;;;;;;18.60;15.53;;;;;;;-143.21;86.51;71701.38;5081564;28;20246;-77
2023/06/18 07:45:33;;;;;;;21.02;15.50;;;;;;;-143.21;87.21;71699.41;5082123;28;20201;-76
2023/06/18 07:48:01;;;;;;;20.53;16.37;;;;;;;-143.21;87.37;71701.38;5088354;28;20668;-77
2023/06/18 07:50:31;;;;;;;18.75;15.55;;;;;;;-143.21;87.95;71697.41;5088400;28;20205;-77
2023/06/18 07:52:57;;;;;;;20.73;15.20;;;;;;;-143.21;88.49;71701.38;5088414;28;20201;-76
2023/06/18 07:55:24;;;;;;;20.73;16.67;;;;;;;-143.21;88.66;71711.28;5088586;28;20205;-76
2023/06/18 07:57:51;;;;;;;20.75;15.32;;;;;;;-143.21;89.03;71713.28;5089021;28;20197;-77
2023/06/18 08:00:21;;;;;;;20.00;14.03;;;;;;;-143.21;88.02;71713.28;5087705;28;20204;-76
2023/06/18 08:02:47;;;;;;;17.57;15.07;;;;;;;-143.21;88.12;71725.16;5089145;28;20270;-77
2023/06/18 08:05:16;;;;;;;20.03;15.10;;;;;;;-143.21;88.06;71721.22;5088040;28;20204;-76
2023/06/18 08:07:43;;;;;;;20.07;15.53;;;;;;;-143.21;87.64;71743.00;5087831;28;20292;-77
2023/06/18 08:10:10;;;;;;;17.93;14.70;;;;;;;-143.21;88.08;71748.97;5088830;28;20235;-78
2023/06/18 08:12:37;;;;;;;19.30;14.67;;;;;;;-143.21;88.17;71760.88;5088632;28;20243;-79
2023/06/18 08:15:04;;;;;;;19.03;15.10;;;;;;;-143.21;88.38;71764.81;5089261;28;20228;-76
2023/06/18 08:17:31;;;;;;;20.77;16.27;;;;;;;-143.21;88.58;71770.78;5089786;28;20205;-81
2023/06/18 08:19:58;;;;;;;20.87;14.93;;;;;;;-143.21;89.11;71766.81;5089135;28;20674;-79
2023/06/18 08:22:28;;;;;;;18.13;14.23;;;;;;;-143.21;88.74;71750.94;5085668;28;20212;-80
2023/06/18 08:24:55;;;;;;;21.37;15.70;;;;;;;-143.21;89.45;71758.88;5088653;28;20215;-79
2023/06/18 08:27:22;;;;;;;20.37;16.17;;;;;;;-143.21;89.85;71750.94;5089679;28;20896;-84
2023/06/18 08:29:49;;;;;;;21.50;15.40;;;;;;;-143.21;89.17;71748.97;5090032;28;20232;-83
2023/06/18 08:32:16;;;;;;;21.30;15.60;;;;;;;-143.21;88.45;71758.88;5088233;28;20687;-87
2023/06/18 08:34:45;;;;;;;22.07;16.33;;;;;;;-143.21;88.67;71772.75;5091824;28;20227;-85
2023/06/18 08:37:12;;;;;;;25.40;15.67;;;;;;;-143.21;89.66;71780.69;5091644;28;20250;-85
2023/06/18 08:39:40;;;;;;;26.53;16.83;;;;;;;-143.21;90.47;71774.75;5092334;28;20384;-84
2023/06/18 08:42:08;;;;;;;18.92;15.98;;;;;;;-143.21;88.82;71764.81;5090936;28;20208;-84
2023/06/18 08:44:35;;;;;;;19.00;14.67;;;;;;;-143.21;88.19;71766.81;5087659;28;20204;-83
2023/06/18 08:47:04;;;;;;;22.13;15.47;;;;;;;-143.21;87.98;71762.84;5087817;28;20196;-83
2023/06/18 08:49:32;;;;;;;19.87;14.60;;;;;;;-143.21;87.71;71754.91;5091638;28;20224;-82
2023/06/18 08:52:01;;;;;;;23.10;15.93;;;;;;;-143.21;87.76;71760.88;5091638;28;20199;-81
2023/06/18 08:54:33;;;;;;;24.23;16.73;;;;;;;-143.21;88.40;71760.88;5090417;28;20274;-81
2023/06/18 08:57:08;;;;;;;18.97;14.87;;;;;;;-143.21;87.38;71741.03;5089855;28;20189;-81
2023/06/18 08:59:37;;;;;;;21.17;15.00;;;;;;;-143.21;87.47;71748.97;5087912;28;20234;-81
2023/06/18 09:02:08;;;;;;;19.17;14.60;;;;;;;-143.21;87.18;71745.00;5086844;28;20201;-80
2023/06/18 09:04:36;;;;;;;19.80;14.67;;;;;;;-143.21;87.55;71743.00;5086793;28;20207;-82
2023/06/18 09:07:04;;;;;;;17.63;14.57;;;;;;;-143.21;87.74;71721.22;5086787;28;20279;-83
2023/06/18 09:09:30;;;;;;;17.70;14.47;;;;;;;-143.21;86.62;71711.28;5089461;28;20220;-84
2023/06/18 09:11:57;;;;;;;18.83;14.17;;;;;;;-143.21;87.19;71703.34;5089863;28;20260;-83
2023/06/18 09:14:27;;;;;;;18.73;14.53;;;;;;;-143.21;86.46;71681.56;5089486;28;20200;-83
2023/06/18 09:16:54;;;;;;;15.40;13.70;;;;;;;-143.21;86.01;71679.56;5090457;28;20315;-83
2023/06/18 09:19:21;;;;;;;15.63;13.52;;;;;;;-143.21;84.00;71669.66;5090955;28;20240;-84
2023/06/18 09:21:48;;;;;;;18.30;13.30;;;;;;;-143.21;83.88;71665.69;5089284;28;20203;-83
2023/06/18 09:24:17;;;;;;;16.80;13.70;;;;;;;-143.21;83.90;71681.56;5089090;28;20196;-84
2023/06/18 09:26:44;;;;;;;19.40;14.00;;;;;;;-143.21;84.10;71677.59;5089992;28;20583;-83
2023/06/18 09:29:12;;;;;;;18.43;14.03;;;;;;;-143.21;83.59;71683.53;5089257;28;20255;-83
2023/06/18 09:31:45;;;;;;;16.50;14.00;;;;;;;-143.21;84.83;71673.63;5089240;28;20207;-84
2023/06/18 09:34:16;;;;;;;16.58;12.73;;;;;;;-143.21;84.66;71663.72;5089322;28;20250;-81
2023/06/18 09:36:47;;;;;;;14.27;11.77;;;;;;;-143.21;83.85;71643.88;5089190;28;20238;-80
2023/06/18 09:39:19;;;;;;;16.08;13.30;;;;;;;-143.21;82.68;71649.81;5089249;28;20201;-81
2023/06/18 09:41:55;;;;;;;18.77;14.77;;;;;;;-143.21;82.73;71639.91;5089768;28;20283;-82
2023/06/18 09:44:23;;;;;;;15.88;12.30;;;;;;;-143.21;81.24;71630.00;5070355;28;20285;-81
2023/06/18 09:46:56;;;;;;;16.80;12.30;;;;;;;-143.21;81.32;71630.00;5087774;28;20200;-80
2023/06/18 09:49:28;;;;;;;16.10;12.30;;;;;;;-143.21;81.89;71622.06;5087156;28;20620;-82
2023/06/18 09:51:55;;;;;;;15.55;12.48;;;;;;;-143.21;82.68;71622.06;5088009;28;20209;-81
2023/06/18 09:54:39;;;;;;;15.13;13.00;;;;;;;-143.21;83.68;71624.06;5091220;28;20228;-79
2023/06/18 09:57:09;;;;;;;15.13;12.57;;;;;;;-143.21;82.10;71614.13;5086207;28;20322;-81
2023/06/18 09:59:37;;;;;;;13.75;11.23;;;;;;;-143.21;82.18;71622.06;5085812;28;20197;-81
2023/06/18 10:02:07;;;;;;;13.80;11.68;;;;;;;-143.21;79.86;71614.13;5085667;28;20212;-81
2023/06/18 10:04:34;;;;;;;14.15;11.15;;;;;;;-143.21;79.85;71610.16;5085794;28;20257;-80
2023/06/18 10:07:15;;;;;;;17.33;12.27;;;;;;;-143.21;80.62;71610.16;5090253;28;20590;-81
2023/06/18 10:09:45;;;;;;;22.88;17.05;;;;;;;-143.21;80.46;71616.13;5085549;28;20244;-77
2023/06/18 10:12:16;;;;;;;17.00;12.27;;;;;;;-143.21;81.29;71614.13;5085485;28;20201;-76
2023/06/18 10:14:44;;;;;;;13.63;10.98;;;;;;;-143.21;80.75;71610.16;5087203;28;20224;-82
2023/06/18 10:17:23;;;;;;;14.77;11.13;;;;;;;-143.21;80.95;71602.25;5088787;28;20197;-81
2023/06/18 10:19:58;;;;;;;13.55;11.50;;;;;;;-143.21;80.51;71582.41;5088315;28;20228;-81
2023/06/18 10:22:29;;;;;;;12.75;11.07;;;;;;;-143.21;80.15;71572.50;5089320;28;20188;-81
2023/06/18 10:25:03;;;;;;;17.10;10.95;;;;;;;-143.21;80.25;71550.69;5088977;28;20197;-81
2023/06/18 10:27:31;;;;;;;18.73;11.57;;;;;;;-143.21;80.11;71544.75;5089275;28;20281;-81
2023/06/18 10:29:58;;;;;;;11.32;10.13;;;;;;;-143.21;77.37;71516.97;5089753;28;20251;-81
2023/06/18 10:32:27;;;;;;;12.82;10.45;;;;;;;-143.21;76.49;71493.19;5088712;28;20212;-81
2023/06/18 10:34:56;;;;;;;12.23;9.82;;;;;;;-143.21;76.72;71505.09;5090197;28;20235;-81
2023/06/18 10:37:25;;;;;;;13.80;9.60;;;;;;;-143.21;76.88;71499.13;5089171;28;20679;-81
2023/06/18 10:39:52;;;;;;;12.68;10.07;;;;;;;-143.21;77.72;71483.28;5089457;28;20204;-81
2023/06/18 10:42:21;;;;;;;11.90;10.15;;;;;;;-143.21;76.88;71469.41;5089385;28;20204;-81
2023/06/18 10:44:54;;;;;;;10.77;9.65;;;;;;;-143.21;75.43;71469.41;5089844;28;20290;-81
2023/06/18 10:47:23;;;;;;;13.43;9.57;;;;;;;-143.21;75.47;71461.47;5071291;28;20633;-82
2023/06/18 10:50:22;;;;;;;12.20;10.55;;;;;;;-143.21;75.22;71469.41;5088833;28;20220;-81
2023/06/18 10:52:50;;;;;;;14.18;9.38;;;;;;;-143.21;74.57;71477.34;5087858;28;20205;-84
2023/06/18 10:55:29;;;;;;;12.35;9.45;;;;;;;-143.21;75.17;71491.22;5088984;28;20197;-87
2023/06/18 10:58:03;;;;;;;12.25;8.98;;;;;;;-143.21;75.59;71481.28;5088239;28;20200;-87
2023/06/18 11:00:36;;;;;;;10.23;9.10;;;;;;;-143.21;75.28;71487.25;5086947;28;20196;-81
2023/06/18 11:03:12;;;;;;;11.60;9.52;;;;;;;-143.21;76.61;71483.28;5084528;28;20207;-84
2023/06/18 11:05:45;;;;;;;11.05;9.55;;;;;;;-143.21;76.82;71471.38;5086516;28;20268;-83
2023/06/18 11:08:13;;;;;;;12.25;9.73;;;;;;;-143.21;76.85;71449.56;5088115;28;20256;-83
2023/06/18 11:10:42;;;;;;;14.07;9.98;;;;;;;-143.21;76.36;71431.72;5088065;28;20224;-83
2023/06/18 11:13:10;;;;;;;11.38;9.68;;;;;;;-143.21;76.04;71413.88;5088192;28;20220;-82